createdAt,value
2023-02-21T00:02:03.899Z,100.00
2023-02-21T00:04:49.233Z,100.00
2023-02-21T00:07:35.133Z,100.00
2023-02-21T00:10:20.463Z,100.00
2023-02-21T00:13:06.402Z,100.00
2023-02-21T00:15:51.949Z,100.00
2023-02-21T00:18:37.781Z,100.00
2023-02-21T00:21:26.708Z,100.00
2023-02-21T00:24:12.533Z,100.00
2023-02-21T00:26:58.333Z,100.00
2023-02-21T00:29:44.082Z,100.00
2023-02-21T00:32:29.593Z,100.00
2023-02-21T00:35:15.419Z,100.00
2023-02-21T00:38:02.047Z,100.00
2023-02-21T00:40:49.180Z,100.00
2023-02-21T00:43:36.728Z,100.00
2023-02-21T00:46:22.723Z,100.00
2023-02-21T00:49:08.132Z,100.00
2023-02-21T00:51:54.255Z,100.00
2023-02-21T00:54:39.695Z,100.00
2023-02-21T00:57:25.390Z,100.00
2023-02-21T01:00:11.537Z,100.00
2023-02-21T01:02:58.053Z,100.00
2023-02-21T01:05:44.601Z,100.00
2023-02-21T01:08:30.214Z,100.00
2023-02-21T01:11:16.260Z,100.00
2023-02-21T01:14:04.178Z,100.00
2023-02-21T01:16:50.938Z,100.00
2023-02-21T01:19:37.745Z,100.00
2023-02-21T01:22:23.558Z,100.00
2023-02-21T01:25:09.886Z,100.00
2023-02-21T01:27:55.407Z,100.00
2023-02-21T01:30:41.185Z,100.00
2023-02-21T01:33:28.299Z,100.00
2023-02-21T01:36:14.192Z,100.00
2023-02-21T01:38:59.560Z,100.00
2023-02-21T01:41:45.276Z,100.00
2023-02-21T01:44:50.293Z,100.00
2023-02-21T01:47:35.566Z,100.00
2023-02-21T01:50:24.215Z,100.00
2023-02-21T01:53:09.812Z,100.00
2023-02-21T01:55:57.880Z,100.00
2023-02-21T01:58:44.469Z,100.00
2023-02-21T02:01:36.363Z,100.00
2023-02-21T02:04:21.988Z,100.00
2023-02-21T02:07:08.428Z,100.00
2023-02-21T02:09:59.267Z,100.00
2023-02-21T02:12:27.735Z,100.00
2023-02-21T02:15:00.521Z,100.00
2023-02-21T02:17:39.062Z,100.00
2023-02-21T02:20:15.617Z,100.00
2023-02-21T02:22:56.174Z,100.00
2023-02-21T02:25:47.500Z,100.00
2023-02-21T02:28:17.727Z,100.00
2023-02-21T02:30:45.117Z,100.00
2023-02-21T02:33:11.986Z,100.00
2023-02-21T02:36:05.738Z,100.00
2023-02-21T02:38:51.504Z,100.00
2023-02-21T02:41:27.608Z,100.00
2023-02-21T02:44:17.799Z,100.00
2023-02-21T02:46:47.345Z,100.00
2023-02-21T02:49:14.236Z,100.00
2023-02-21T02:51:41.252Z,100.00
2023-02-21T02:54:08.211Z,100.00
2023-02-21T02:56:37.082Z,100.00
2023-02-21T02:59:10.726Z,100.00
2023-02-21T03:01:56.026Z,100.00
2023-02-21T03:04:29.091Z,100.00
2023-02-21T03:07:09.775Z,100.00
2023-02-21T03:09:52.802Z,100.00
2023-02-21T03:12:24.238Z,100.00
2023-02-21T03:14:57.148Z,100.00
2023-02-21T03:17:27.925Z,100.00
2023-02-21T03:20:00.265Z,100.00
2023-02-21T03:22:30.732Z,100.00
2023-02-21T03:25:00.110Z,100.00
2023-02-21T03:27:33.489Z,100.00
2023-02-21T03:30:03.496Z,100.00
2023-02-21T03:32:32.776Z,100.00
2023-02-21T03:34:59.730Z,100.00
2023-02-21T03:37:30.870Z,100.00
2023-02-21T03:39:58.193Z,100.00
2023-02-21T03:42:24.981Z,100.00
2023-02-21T03:44:51.964Z,100.00
2023-02-21T03:47:18.738Z,100.00
2023-02-21T03:49:54.864Z,100.00
2023-02-21T03:52:21.936Z,100.00
2023-02-21T03:54:49.154Z,100.00
2023-02-21T03:57:16.633Z,100.00
2023-02-21T03:59:44.172Z,100.00
2023-02-21T04:02:11.237Z,100.00
2023-02-21T04:04:38.919Z,100.00
2023-02-21T04:07:05.894Z,100.00
2023-02-21T04:09:32.684Z,100.00
2023-02-21T04:12:00.527Z,100.00
2023-02-21T04:14:28.056Z,100.00
2023-02-21T04:16:55.174Z,100.00
2023-02-21T04:19:22.834Z,100.00
2023-02-21T04:21:49.809Z,100.00
2023-02-21T04:24:16.697Z,100.00
2023-02-21T04:26:43.306Z,100.00
2023-02-21T04:29:09.992Z,100.00
2023-02-21T04:31:36.940Z,100.00
2023-02-21T04:34:12.293Z,100.00
2023-02-21T04:36:40.241Z,100.00
2023-02-21T04:39:07.811Z,100.00
2023-02-21T04:41:35.701Z,100.00
2023-02-21T04:44:02.401Z,100.00
2023-02-21T04:46:29.117Z,100.00
2023-02-21T04:48:56.637Z,100.00
2023-02-21T04:51:33.298Z,100.00
2023-02-21T04:54:00.077Z,100.00
2023-02-21T04:56:30.254Z,100.00
2023-02-21T04:58:57.672Z,100.00
2023-02-21T05:01:31.618Z,100.00
2023-02-21T05:03:59.686Z,100.00
2023-02-21T05:06:28.691Z,100.00
2023-02-21T05:08:56.079Z,100.00
2023-02-21T05:11:23.757Z,100.00
2023-02-21T05:13:50.894Z,100.00
2023-02-21T05:16:18.926Z,100.00
2023-02-21T05:18:47.059Z,100.00
2023-02-21T05:21:14.392Z,100.00
2023-02-21T05:23:42.889Z,100.00
2023-02-21T05:26:10.921Z,100.00
2023-02-21T05:28:38.412Z,100.00
2023-02-21T05:31:06.004Z,100.00
2023-02-21T05:33:33.296Z,100.00
2023-02-21T05:36:00.272Z,100.00
2023-02-21T05:38:27.319Z,100.00
2023-02-21T05:40:54.638Z,100.00
2023-02-21T05:43:21.645Z,100.00
2023-02-21T05:45:48.782Z,100.00
2023-02-21T05:48:20.592Z,100.00
2023-02-21T05:50:50.682Z,100.00
2023-02-21T05:53:17.228Z,100.00
2023-02-21T05:55:44.743Z,100.00
2023-02-21T05:58:11.691Z,100.00
2023-02-21T06:00:39.011Z,100.00
2023-02-21T06:03:05.864Z,100.00
2023-02-21T06:05:33.256Z,100.00
2023-02-21T06:08:00.137Z,100.00
2023-02-21T06:10:26.999Z,100.00
2023-02-21T06:12:54.278Z,100.00
2023-02-21T06:15:21.191Z,100.00
2023-02-21T06:17:47.965Z,100.00
2023-02-21T06:20:16.725Z,100.00
2023-02-21T06:22:44.025Z,100.00
2023-02-21T06:25:11.073Z,100.00
2023-02-21T06:27:40.575Z,100.00
2023-02-21T06:30:07.940Z,100.00
2023-02-21T06:32:34.927Z,100.00
2023-02-21T06:35:04.068Z,100.00
2023-02-21T06:37:31.157Z,100.00
2023-02-21T06:39:58.184Z,100.00
2023-02-21T06:42:25.900Z,100.00
2023-02-21T06:44:52.741Z,100.00
2023-02-21T06:47:19.748Z,100.00
2023-02-21T06:49:46.748Z,100.00
2023-02-21T06:52:14.138Z,100.00
2023-02-21T06:54:40.922Z,100.00
2023-02-21T06:57:08.626Z,100.00
2023-02-21T06:59:38.879Z,100.00
2023-02-21T07:02:05.666Z,100.00
2023-02-21T07:04:32.775Z,100.00
2023-02-21T07:06:59.710Z,100.00
2023-02-21T07:09:29.094Z,100.00
2023-02-21T07:11:58.311Z,100.00
2023-02-21T07:14:28.903Z,100.00
2023-02-21T07:16:59.661Z,100.00
2023-02-21T07:19:32.491Z,100.00
2023-02-21T07:22:00.221Z,100.00
2023-02-21T07:24:27.676Z,100.00
2023-02-21T07:26:59.000Z,100.00
2023-02-21T07:29:26.152Z,100.00
2023-02-21T07:32:01.540Z,100.00
2023-02-21T07:34:29.506Z,100.00
2023-02-21T07:36:58.683Z,100.00
2023-02-21T07:39:37.456Z,100.00
2023-02-21T07:42:05.380Z,100.00
2023-02-21T07:44:32.291Z,100.00
2023-02-21T07:46:59.581Z,100.00
2023-02-21T07:49:27.770Z,100.00
2023-02-21T07:51:54.672Z,100.00
2023-02-21T07:54:23.284Z,100.00
2023-02-21T07:56:52.623Z,100.00
2023-02-21T07:59:24.544Z,100.00
2023-02-21T08:01:51.904Z,100.00
2023-02-21T08:04:22.851Z,100.00
2023-02-21T08:06:52.572Z,100.00
2023-02-21T08:09:19.173Z,100.00
2023-02-21T08:11:46.315Z,100.00
2023-02-21T08:14:13.406Z,100.00
2023-02-21T08:16:40.441Z,100.00
2023-02-21T08:19:10.672Z,100.00
2023-02-21T08:21:38.022Z,100.00
2023-02-21T08:24:09.517Z,100.00
2023-02-21T08:26:36.860Z,100.00
2023-02-21T08:29:04.079Z,100.00
2023-02-21T08:31:34.315Z,100.00
2023-02-21T08:34:01.715Z,100.00
2023-02-21T08:36:36.126Z,100.00
2023-02-21T08:39:04.425Z,100.00
2023-02-21T08:41:37.136Z,100.00
2023-02-21T08:44:04.610Z,100.00
2023-02-21T08:46:31.917Z,100.00
2023-02-21T08:48:59.311Z,100.00
2023-02-21T08:51:27.001Z,100.00
2023-02-21T08:53:54.649Z,100.00
2023-02-21T08:56:24.694Z,100.00
2023-02-21T08:58:54.095Z,100.00
2023-02-21T09:01:23.729Z,100.00
2023-02-21T09:03:50.814Z,100.00
2023-02-21T09:06:18.192Z,100.00
2023-02-21T09:08:45.563Z,100.00
2023-02-21T09:11:12.700Z,100.00
2023-02-21T09:13:41.922Z,100.00
2023-02-21T09:16:08.726Z,100.00
2023-02-21T09:18:38.113Z,100.00
2023-02-21T09:21:06.162Z,100.00
2023-02-21T09:23:33.457Z,100.00
2023-02-21T09:26:00.373Z,100.00
2023-02-21T09:28:29.887Z,100.00
2023-02-21T09:30:56.455Z,100.00
2023-02-21T09:33:25.255Z,100.00
2023-02-21T09:35:53.903Z,100.00
2023-02-21T09:38:20.754Z,100.00
2023-02-21T09:40:55.057Z,100.00
2023-02-21T09:43:28.649Z,100.00
2023-02-21T09:45:58.148Z,100.00
2023-02-21T09:48:32.266Z,100.00
2023-02-21T09:51:03.925Z,100.00
2023-02-21T09:53:36.512Z,100.00
2023-02-21T09:56:14.443Z,100.00
2023-02-21T09:58:43.768Z,100.00
2023-02-21T10:01:37.216Z,100.00
2023-02-21T10:04:15.337Z,100.00
2023-02-21T10:06:48.049Z,100.00
2023-02-21T10:09:39.365Z,100.00
2023-02-21T10:12:12.871Z,100.00
2023-02-21T10:14:58.902Z,100.00
2023-02-21T10:17:34.265Z,100.00
2023-02-21T10:20:14.444Z,100.00
2023-02-21T10:22:44.067Z,100.00
2023-02-21T10:25:44.188Z,100.00
2023-02-21T10:28:16.893Z,100.00
2023-02-21T10:30:47.144Z,100.00
2023-02-21T10:33:15.609Z,100.00
2023-02-21T10:35:43.840Z,100.00
2023-02-21T10:38:13.405Z,100.00
2023-02-21T10:41:02.614Z,100.00
2023-02-21T10:43:50.608Z,100.00
2023-02-21T10:46:23.154Z,100.00
2023-02-21T10:48:52.719Z,100.00
2023-02-21T10:51:31.789Z,100.00
2023-02-21T10:54:17.259Z,100.00
2023-02-21T10:56:45.256Z,100.00
2023-02-21T10:59:19.075Z,100.00
2023-02-21T11:01:49.282Z,100.00
2023-02-21T11:04:22.808Z,100.00
2023-02-21T11:06:56.228Z,100.00
2023-02-21T11:09:43.001Z,100.00
2023-02-21T11:12:15.940Z,100.00
2023-02-21T11:15:03.866Z,100.00
2023-02-21T11:17:34.767Z,100.00
2023-02-21T11:20:07.254Z,100.00
2023-02-21T11:22:35.204Z,100.00
2023-02-21T11:25:17.925Z,99.86
2023-02-21T11:27:46.437Z,98.89
2023-02-21T11:30:16.070Z,99.09
2023-02-21T11:32:45.591Z,98.75
2023-02-21T11:35:30.164Z,98.62
2023-02-21T11:37:57.714Z,98.78
2023-02-21T11:40:32.888Z,98.73
2023-02-21T11:43:19.634Z,98.68
2023-02-21T11:46:05.283Z,98.43
2023-02-21T11:48:36.954Z,98.48
2023-02-21T11:51:17.319Z,98.59
2023-02-21T11:53:52.469Z,98.29
2023-02-21T11:56:31.092Z,96.80
2023-02-21T11:59:00.878Z,96.40
2023-02-21T12:01:37.627Z,96.49
2023-02-21T12:04:13.434Z,96.65
2023-02-21T12:06:50.319Z,96.00
2023-02-21T12:09:29.762Z,95.08
2023-02-21T12:12:09.072Z,94.43
2023-02-21T12:14:54.083Z,94.16
2023-02-21T12:17:21.210Z,94.48
2023-02-21T12:20:06.897Z,95.05
2023-02-21T12:22:52.781Z,94.58
2023-02-21T12:25:23.867Z,94.74
2023-02-21T12:27:57.892Z,94.64
2023-02-21T12:30:27.059Z,95.10
2023-02-21T12:33:03.414Z,95.10
2023-02-21T12:36:02.209Z,95.19
2023-02-21T12:38:41.033Z,95.04
2023-02-21T12:41:10.474Z,95.02
2023-02-21T12:43:49.525Z,95.41
2023-02-21T12:46:31.513Z,95.46
2023-02-21T12:49:17.301Z,95.84
2023-02-21T12:51:47.082Z,96.49
2023-02-21T12:54:16.749Z,96.06
2023-02-21T12:56:52.253Z,95.95
2023-02-21T12:59:23.528Z,95.79
2023-02-21T13:01:56.003Z,96.36
2023-02-21T13:04:28.365Z,96.58
2023-02-21T13:07:00.950Z,96.81
2023-02-21T13:09:34.361Z,96.66
2023-02-21T13:12:09.024Z,96.14
2023-02-21T13:14:48.298Z,95.74
2023-02-21T13:17:17.027Z,95.24
2023-02-21T13:19:44.364Z,96.29
2023-02-21T13:22:49.491Z,95.78
2023-02-21T13:25:23.754Z,95.96
2023-02-21T13:27:59.014Z,95.99
2023-02-21T13:30:38.164Z,96.13
2023-02-21T13:33:06.264Z,96.37
2023-02-21T13:35:35.647Z,96.90
2023-02-21T13:38:06.922Z,97.05
2023-02-21T13:40:39.628Z,96.91
2023-02-21T13:43:12.377Z,96.34
2023-02-21T13:45:41.769Z,96.41
2023-02-21T13:48:08.488Z,96.66
2023-02-21T13:50:39.105Z,95.91
2023-02-21T13:53:16.610Z,96.13
2023-02-21T13:56:12.228Z,95.87
2023-02-21T13:58:40.709Z,95.91
2023-02-21T14:01:16.362Z,95.87
2023-02-21T14:03:45.362Z,95.24
2023-02-21T14:06:12.192Z,96.13
2023-02-21T14:08:42.828Z,96.25
2023-02-21T14:11:12.951Z,96.06
2023-02-21T14:13:42.758Z,96.44
2023-02-21T14:16:18.085Z,96.53
2023-02-21T14:18:59.990Z,96.35
2023-02-21T14:21:29.947Z,96.47
2023-02-21T14:24:00.229Z,96.41
2023-02-21T14:26:49.070Z,96.53
2023-02-21T14:29:33.809Z,96.29
2023-02-21T14:32:03.984Z,96.07
2023-02-21T14:34:33.866Z,95.96
2023-02-21T14:37:06.068Z,96.16
2023-02-21T14:39:34.755Z,96.25
2023-02-21T14:42:08.933Z,96.27
2023-02-21T14:44:40.693Z,96.74
2023-02-21T14:47:26.115Z,97.22
2023-02-21T14:50:13.480Z,97.82
2023-02-21T14:52:58.990Z,97.58
2023-02-21T14:55:40.271Z,97.81
2023-02-21T14:58:12.837Z,97.22
2023-02-21T15:00:50.011Z,97.70
2023-02-21T15:03:28.677Z,97.73
2023-02-21T15:05:55.255Z,97.21
2023-02-21T15:08:25.404Z,97.43
2023-02-21T15:11:02.818Z,97.21
2023-02-21T15:13:31.307Z,96.58
2023-02-21T15:16:06.494Z,96.86
2023-02-21T15:18:37.968Z,97.28
2023-02-21T15:21:15.255Z,97.29
2023-02-21T15:23:46.794Z,97.10
2023-02-21T15:26:24.003Z,97.02
2023-02-21T15:29:10.304Z,97.24
2023-02-21T15:31:44.294Z,97.61
2023-02-21T15:34:19.791Z,97.59
2023-02-21T15:36:47.897Z,97.60
2023-02-21T15:39:20.724Z,97.34
2023-02-21T15:41:50.297Z,97.60
2023-02-21T15:44:26.067Z,97.41
2023-02-21T15:46:59.551Z,98.01
2023-02-21T15:49:34.960Z,98.05
2023-02-21T15:52:04.740Z,98.03
2023-02-21T15:54:38.266Z,98.50
2023-02-21T15:57:09.769Z,98.39
2023-02-21T15:59:38.209Z,98.29
2023-02-21T16:02:11.274Z,98.68
2023-02-21T16:04:39.329Z,98.56
2023-02-21T16:07:07.229Z,98.22
2023-02-21T16:09:36.158Z,97.98
2023-02-21T16:12:06.035Z,98.47
2023-02-21T16:14:44.182Z,99.03
2023-02-21T16:17:13.700Z,99.12
2023-02-21T16:19:47.807Z,99.05
2023-02-21T16:22:29.267Z,99.22
2023-02-21T16:25:05.173Z,98.75
2023-02-21T16:27:32.161Z,98.91
2023-02-21T16:29:59.222Z,98.67
2023-02-21T16:32:25.848Z,98.84
2023-02-21T16:34:54.915Z,99.43
2023-02-21T16:37:21.806Z,99.50
2023-02-21T16:39:48.947Z,100.00
2023-02-21T16:42:16.210Z,100.00
2023-02-21T16:44:43.853Z,100.00
2023-02-21T16:47:17.569Z,100.00
2023-02-21T16:49:44.450Z,100.00
2023-02-21T16:52:17.019Z,100.00
2023-02-21T16:54:48.900Z,100.00
2023-02-21T16:57:21.711Z,100.00
2023-02-21T16:59:49.002Z,100.00
2023-02-21T17:02:16.150Z,100.00
2023-02-21T17:04:43.011Z,100.00
2023-02-21T17:07:17.355Z,100.00
2023-02-21T17:09:45.242Z,100.00
2023-02-21T17:12:12.787Z,100.00
2023-02-21T17:14:39.901Z,100.00
2023-02-21T17:17:07.114Z,100.00
2023-02-21T17:19:35.933Z,100.00
2023-02-21T17:22:06.375Z,100.00
2023-02-21T17:24:33.696Z,100.00
2023-02-21T17:27:01.642Z,100.00
2023-02-21T17:29:29.399Z,100.00
2023-02-21T17:31:56.284Z,100.00
2023-02-21T17:34:23.586Z,100.00
2023-02-21T17:36:51.983Z,100.00
2023-02-21T17:39:19.248Z,100.00
2023-02-21T17:41:50.008Z,100.00
2023-02-21T17:44:20.432Z,100.00
2023-02-21T17:46:51.872Z,100.00
2023-02-21T17:49:20.165Z,100.00
2023-02-21T17:51:50.899Z,100.00
2023-02-21T17:54:19.343Z,100.00
2023-02-21T17:56:47.216Z,100.00
2023-02-21T17:59:14.720Z,100.00
2023-02-21T18:01:41.957Z,100.00
2023-02-21T18:04:10.148Z,100.00
2023-02-21T18:06:36.935Z,100.00
2023-02-21T18:09:04.338Z,100.00
2023-02-21T18:11:31.623Z,100.00
2023-02-21T18:13:58.203Z,100.00
2023-02-21T18:16:25.392Z,100.00
2023-02-21T18:18:52.100Z,100.00
2023-02-21T18:21:19.089Z,100.00
2023-02-21T18:23:46.549Z,100.00
2023-02-21T18:26:13.952Z,100.00
2023-02-21T18:28:41.459Z,100.00
2023-02-21T18:31:10.883Z,100.00
2023-02-21T18:33:38.046Z,100.00
2023-02-21T18:36:08.759Z,100.00
2023-02-21T18:38:35.562Z,100.00
2023-02-21T18:41:03.094Z,100.00
2023-02-21T18:43:30.372Z,100.00
2023-02-21T18:45:58.137Z,100.00
2023-02-21T18:48:25.522Z,99.98
2023-02-21T18:50:53.516Z,99.78
2023-02-21T18:56:11.505Z,100.00
2023-02-21T18:58:39.071Z,100.00
2023-02-21T19:01:07.012Z,100.00
2023-02-21T19:03:34.125Z,100.00
2023-02-21T19:06:01.065Z,100.00
2023-02-21T19:08:28.980Z,100.00
2023-02-21T19:10:55.945Z,100.00
2023-02-21T19:13:22.514Z,100.00
2023-02-21T19:15:49.257Z,100.00
2023-02-21T19:18:17.111Z,100.00
2023-02-21T19:20:49.700Z,100.00
2023-02-21T19:23:16.906Z,100.00
2023-02-21T19:25:43.979Z,100.00
2023-02-21T19:28:11.021Z,100.00
2023-02-21T19:30:40.474Z,100.00
2023-02-21T19:33:12.113Z,100.00
2023-02-21T19:35:39.823Z,100.00
2023-02-21T19:38:07.874Z,100.00
2023-02-21T19:40:37.869Z,100.00
2023-02-21T19:43:06.477Z,100.00
2023-02-21T19:45:35.066Z,100.00
2023-02-21T19:48:02.232Z,100.00
2023-02-21T19:50:45.036Z,100.00
2023-02-21T19:53:15.219Z,100.00
2023-02-21T19:55:42.184Z,100.00
2023-02-21T19:58:10.230Z,100.00
2023-02-21T20:00:44.283Z,100.00
2023-02-21T20:03:20.152Z,100.00
2023-02-21T20:05:47.777Z,100.00
2023-02-21T20:08:14.887Z,100.00
2023-02-21T20:10:41.881Z,100.00
2023-02-21T20:13:08.898Z,100.00
2023-02-21T20:15:36.187Z,100.00
2023-02-21T20:18:04.000Z,100.00
2023-02-21T20:20:31.177Z,100.00
2023-02-21T20:22:58.856Z,100.00
2023-02-21T20:25:25.633Z,100.00
2023-02-21T20:27:52.740Z,100.00
2023-02-21T20:30:19.941Z,100.00
2023-02-21T20:32:46.972Z,100.00
2023-02-21T20:35:14.157Z,100.00
2023-02-21T20:37:41.284Z,100.00
2023-02-21T20:40:13.515Z,100.00
2023-02-21T20:42:40.477Z,100.00
2023-02-21T20:45:07.985Z,99.67
2023-02-21T20:47:35.705Z,100.00
2023-02-21T20:50:02.922Z,99.89
2023-02-21T20:52:43.615Z,99.80
2023-02-21T20:55:10.531Z,99.89
2023-02-21T20:57:38.513Z,100.00
2023-02-21T21:00:09.214Z,100.00
2023-02-21T21:02:36.223Z,100.00
2023-02-21T21:05:09.355Z,100.00
2023-02-21T21:07:36.355Z,100.00
2023-02-21T21:10:07.125Z,100.00
2023-02-21T21:12:34.753Z,100.00
2023-02-21T21:15:02.030Z,100.00
2023-02-21T21:17:29.179Z,100.00
2023-02-21T21:19:58.769Z,99.51
2023-02-21T21:22:27.372Z,99.29
2023-02-21T21:24:55.124Z,98.94
2023-02-21T21:27:22.974Z,99.12
2023-02-21T21:29:51.408Z,98.69
2023-02-21T21:32:21.892Z,99.09
2023-02-21T21:34:51.080Z,99.47
2023-02-21T21:37:19.873Z,98.85
2023-02-21T21:39:49.464Z,99.17
2023-02-21T21:42:20.049Z,99.58
2023-02-21T21:44:52.053Z,99.88
2023-02-21T21:47:22.998Z,100.00
2023-02-21T21:49:51.085Z,100.00
2023-02-21T21:52:19.912Z,100.00
2023-02-21T21:54:47.660Z,100.00
2023-02-21T21:57:18.670Z,100.00
2023-02-21T21:59:48.658Z,100.00
2023-02-21T22:02:16.114Z,100.00
2023-02-21T22:04:43.057Z,100.00
2023-02-21T22:07:10.223Z,99.86
2023-02-21T22:09:37.883Z,100.00
2023-02-21T22:12:06.021Z,100.00
2023-02-21T22:14:33.182Z,100.00
2023-02-21T22:17:00.284Z,100.00
2023-02-21T22:19:28.225Z,99.73
2023-02-21T22:21:55.334Z,99.92
2023-02-21T22:24:23.250Z,99.58
2023-02-21T22:26:54.406Z,99.76
2023-02-21T22:29:23.956Z,99.49
2023-02-21T22:31:52.281Z,99.79
2023-02-21T22:34:25.296Z,99.41
2023-02-21T22:36:53.743Z,99.04
2023-02-21T22:39:21.602Z,99.45
2023-02-21T22:41:54.113Z,99.12
2023-02-21T22:44:24.775Z,99.65
2023-02-21T22:46:58.923Z,99.63
2023-02-21T22:49:28.714Z,99.26
2023-02-21T22:51:59.758Z,99.72
2023-02-21T22:54:27.181Z,99.20
2023-02-21T22:56:59.916Z,99.47
2023-02-21T22:59:28.108Z,99.75
2023-02-21T23:01:58.502Z,99.35
2023-02-21T23:04:28.466Z,99.73
2023-02-21T23:06:55.818Z,100.00
2023-02-21T23:09:24.816Z,100.00
2023-02-21T23:11:53.451Z,100.00
2023-02-21T23:14:24.800Z,100.00
2023-02-21T23:16:54.854Z,100.00
2023-02-21T23:19:23.349Z,100.00
2023-02-21T23:21:51.965Z,100.00
2023-02-21T23:24:21.875Z,100.00
2023-02-21T23:26:48.995Z,100.00
2023-02-21T23:29:17.484Z,100.00
2023-02-21T23:31:45.128Z,100.00
2023-02-21T23:34:15.276Z,100.00
2023-02-21T23:36:49.215Z,100.00
2023-02-21T23:39:16.396Z,100.00
2023-02-21T23:41:48.810Z,100.00
2023-02-21T23:44:16.371Z,100.00
2023-02-21T23:46:44.686Z,100.00
2023-02-21T23:49:15.593Z,100.00
2023-02-21T23:51:47.289Z,100.00
2023-02-21T23:54:15.106Z,100.00
2023-02-21T23:56:46.983Z,100.00
2023-02-21T23:59:15.403Z,100.00
